Terminal Aerodrome Forecast
Issued by NWS

Home | Current Version | Previous Version | Text Only | Print | Product List | Glossary On
Versions: 1 2 3 4 5 6 7 8 9 10 11 12 13 14 15
000
FTUS41 KBTV 251730
TAFPBG
TAF
KPBG 251730Z 2518/2618 19005KT P6SM VCSH SCT060 OVC090
      TEMPO 2520/2524 3SM TSRA BR BKN030CB
     FM260000 17004KT P6SM VCSH FEW100 SCT110
     FM260200 20005KT P6SM FEW150
     FM261400 26007KT P6SM FEW120=

USA.gov is the U.S. government's official web portal to all federal, state and local government web resources and services.